Beach Haven, NJ

12:59 PM EDT on October 23, 2014 (GMT -0400)
Beach Arlington | Change Station
CLOSE
Current Station
Personal Weather Station
Location: Ship Bottom, NJ
Elevation: 12 ft
Nearby Weather Stations

Elev 12 ft 39.64 °N, 74.18 °W | Updated 5 seconds ago

Overcast
Overcast
52.3 °F
Feels Like 52.3 °F
N
2.0
Wind Variable Wind from NNW
Gusts 19.0 mph

Today
High -- | Low -- °F
--% Chance of Precip.
Yesterday
High -- | Low -- °F
Precip. -- in
7:15 AM 6:06 PM
Waning Crescent, 0% visible
Pressure 29.72 in
Visibility 10.0 miles
Clouds Mostly Cloudy 1400 ft
Overcast 1900 ft
Dew Point 50 °F
Humidity 92%
Rainfall 0.05 in
Snow Depth Not available.
UV 1 out of 12
Pollen .30 out of 12
Air Quality Not available.
Flu Activity Sporadic
METAR KMJX 231655Z AUTO 33007KT 10SM BKN014 OVC019 11/09 A2972 RMK AO1

More Conditions Fewer Conditions

Pressure 29.72 in
Visibility 10.0 miles
Clouds Mostly Cloudy 1400 ft
Overcast 1900 ft
Dew Point 50 °F
Humidity 92%
Rainfall 0.05 in
Snow Depth Not available.
UV 1 out of 12
Pollen .30 out of 12
Air Quality Not available.
Flu Activity Sporadic
METAR KMJX 231655Z AUTO 33007KT 10SM BKN014 OVC019 11/09 A2972 RMK AO1

More Conditions Fewer Conditions

10-Day Weather Forecast

Almanac

Astronomy

Oct. 23, 2014 Rise Set
Actual Time 7:15 AM EDT 6:06 PM EDT
Civil Twilight 6:47 AM EDT 6:33 PM EDT
Nautical Twilight 6:16 AM EDT 7:05 PM EDT
Astronomical Twilight 5:45 AM EDT 7:36 PM EDT
Moon 6:52 AM EDT 6:06 PM EDT
Length of Visible Light 11h 45m
Length of Day
10h 50m
Tomorrow will be 2m 25s shorter.
Waning Crescent, 0% of the Moon is Illuminated
Today
Waning Crescent
Oct 23
New
Oct 30
First Quarter
Nov 6
Full
Nov 14
Last Quarter

Today's Extremes

State Highs State Lows

Community

WunderPhotos

Upload Photos

1,764,308 photos uploaded!

WunderBlogs® & News

Nearby

Snow Depth

Station Depth Elevation
No new snow has been reported.

Earthquake Activity

City Distance Mag. Time & Date
No recent earthquake activity has been reported nearby.
Minimum magnitude displayed is 2.5.

Coastal Water Temperatures

Place Temperature
No Stations Reporting

Nearby Weather Stations